Catalonia — 9HWS7 — position and weather

sailwx.info

Track history (hours):
 
Tides and Currents Weather Stations Pressure Air Temp Water Temp Dewpoint Dewpoint Depression Visibility Wind Speed Wind Dir Waves Ship Positions

Catalonia

Last reported at 2015-Jan-26 03:13 UTC. Time now 2015-Jan-29 06:19 UTC.
Position N 31°05' E 122°47'.

Length 189 m; draft 7.1 m.

Type: Cargo ship. MMSI: 215929000.

Date/timePositionNaut miles runAvg speedWind from/ knotsBaromVisibWave heightAir tempDewpointWater temp
2015-Jan-26 03:13N 31°05' E 122°47'0 0.0
2015-Jan-25 11:13N 31°05' E 122°48'0 0.1
2015-Jan-25 10:31N 31°05' E 122°48'0 0.0
2015-Jan-25 08:28N 31°05' E 122°48'0 0.0
2015-Jan-23 04:31N 31°05' E 122°47'0 0.0
2015-Jan-21 12:16N 31°05' E 122°47'0 0.0
2015-Jan-21 11:25N 31°05' E 122°47'0 0.0
2015-Jan-21 03:28N 31°05' E 122°47'0 0.1
2015-Jan-21 02:31N 31°05' E 122°47'0 0.1
2015-Jan-21 01:31N 31°05' E 122°47'0 0.1
2015-Jan-20 23:25N 31°05' E 122°47'9 1.2
2015-Jan-20 15:14N 31°05' E 122°36'710.3
2015-Jan-20 14:33N 31°05' E 122°28'9 8.6
2015-Jan-20 13:33N 31°06' E 122°18'1010.5
2015-Jan-20 12:33N 31°12' E 122°08'1313.5
2015-Jan-20 11:33N 31°16' E 121°53'1313.1
2015-Jan-20 10:33N 31°21' E 121°39'1010.1
2015-Jan-20 09:34N 31°27' E 121°29'1211.8
2015-Jan-20 08:34N 31°35' E 121°18'1313.0
2015-Jan-20 07:33N 31°43' E 121°07'1110.9
2015-Jan-20 06:33N 31°48' E 120°55'1010.4
2015-Jan-20 05:33N 31°58' E 120°51'2 1.8
2015-Jan-20 04:24N 31°59' E 120°49'0 0.2
2015-Jan-20 03:27N 31°59' E 120°50'0 0.0
2015-Jan-20 02:31N 31°59' E 120°50'0 0.0
2015-Jan-20 01:18N 31°59' E 120°50'0 0.0
2015-Jan-20 00:33N 31°59' E 120°50'0 0.0
2015-Jan-19 23:33N 31°59' E 120°50'0 0.0
2015-Jan-19 22:33N 31°59' E 120°50'0 0.1
2015-Jan-19 21:33N 31°59' E 120°50'0 0.1
2015-Jan-19 20:33N 31°59' E 120°49'0 0.0
2015-Jan-19 19:27N 31°59' E 120°49'0 0.0
2015-Jan-19 18:30N 31°59' E 120°49'0 0.0
2015-Jan-19 17:18N 31°59' E 120°49'0 0.0
2015-Jan-19 16:30N 31°59' E 120°49'0 0.2
2015-Jan-19 15:33N 31°59' E 120°50'0 0.0
2015-Jan-19 14:30N 31°59' E 120°50'0 0.0
2015-Jan-19 13:33N 31°59' E 120°50'0 0.0
2015-Jan-19 12:33N 31°59' E 120°50'0 0.0
2015-Jan-19 11:33N 31°59' E 120°50'0 0.1
2015-Jan-19 10:30N 31°59' E 120°50'0 0.1
2015-Jan-19 09:30N 31°59' E 120°50'0 0.2
2015-Jan-19 08:30N 31°59' E 120°49'0 0.0
2015-Jan-19 07:30N 31°59' E 120°49'0 0.0
2015-Jan-19 06:21N 31°59' E 120°49'0 0.0
2015-Jan-19 05:33N 31°59' E 120°49'0 0.0
2015-Jan-19 04:24N 31°59' E 120°49'0 0.1
2015-Jan-19 03:30N 31°59' E 120°49'0 0.2
2015-Jan-19 02:33N 31°59' E 120°50'0 0.1
2015-Jan-19 01:33N 31°59' E 120°50'0 0.0
2015-Jan-19 00:30N 31°59' E 120°50'0 0.0
2015-Jan-18 23:33N 31°59' E 120°50'0 0.0
2015-Jan-18 22:33N 31°59' E 120°50'0 0.0
2015-Jan-18 21:33N 31°59' E 120°50'0 0.0
2015-Jan-18 20:24N 31°59' E 120°50'0 0.1
2015-Jan-18 19:27N 31°59' E 120°50'0 0.2
2015-Jan-18 18:33N 31°59' E 120°50'0 0.1
2015-Jan-18 17:33N 31°59' E 120°50'0 0.1
2015-Jan-18 16:33N 31°59' E 120°50'0 0.1
2015-Jan-18 15:27N 31°59' E 120°50'0 0.1
2015-Jan-18 14:33N 31°59' E 120°50'0 0.0
2015-Jan-18 13:15N 31°59' E 120°50'0 0.0
2015-Jan-18 12:30N 31°59' E 120°50'0 0.0
2015-Jan-18 11:33N 31°59' E 120°50'0 0.0
2015-Jan-18 10:30N 31°59' E 120°50'0 0.0
2015-Jan-18 09:33N 31°59' E 120°50'1 0.6
2015-Jan-18 08:33N 31°60' E 120°50'0 0.0
2015-Jan-18 07:28N 31°60' E 120°50'0 0.0
2015-Jan-18 06:28N 31°60' E 120°50'0 0.0
2015-Jan-18 05:28N 31°60' E 120°50'0 0.0
2015-Jan-18 04:28N 31°60' E 120°50'0 0.0
2015-Jan-18 03:28N 31°60' E 120°50'0 0.0
2015-Jan-18 02:31N 31°60' E 120°50'0 0.0
2015-Jan-18 01:31N 31°60' E 120°50'0 0.0
2015-Jan-18 00:31N 31°60' E 120°50'0 0.0
2015-Jan-17 23:31N 31°60' E 120°50'0 0.0
2015-Jan-17 22:31N 31°60' E 120°50'0 0.0
2015-Jan-17 21:31N 31°60' E 120°50'0 0.0
2015-Jan-17 20:31N 31°60' E 120°50'0 0.0
2015-Jan-17 19:28N 31°60' E 120°50'0 0.0
2015-Jan-17 18:28N 31°60' E 120°50'0 0.0
2015-Jan-17 17:31N 31°60' E 120°50'0 0.0
2015-Jan-17 16:28N 31°60' E 120°50'0 0.0
2015-Jan-17 15:28N 31°60' E 120°50'0 0.0
2015-Jan-17 14:28N 31°60' E 120°50'0 0.0
2015-Jan-17 13:31N 31°60' E 120°50'0 0.0
2015-Jan-17 12:31N 31°60' E 120°50'0 0.0
2015-Jan-17 11:25N 31°60' E 120°50'0 0.0
2015-Jan-17 10:31N 31°60' E 120°50'0 0.0
2015-Jan-17 09:31N 31°60' E 120°50'0 0.0
2015-Jan-17 08:31N 31°60' E 120°50'0 0.5
2015-Jan-17 07:31N 31°60' E 120°49'0 0.0
2015-Jan-17 06:32N 31°60' E 120°49'0 0.0
2015-Jan-17 05:31N 31°60' E 120°49'0 0.0
2015-Jan-17 04:28N 31°60' E 120°49'0 0.0
2015-Jan-17 03:31N 31°60' E 120°49'0 0.0
2015-Jan-17 02:26N 31°60' E 120°49'0 0.0
2015-Jan-17 01:31N 31°60' E 120°49'0 0.0
2015-Jan-17 00:31N 31°60' E 120°49'0 0.0
2015-Jan-16 23:32N 31°60' E 120°49'0 0.0
2015-Jan-16 22:31N 31°60' E 120°49'0 0.0
2015-Jan-16 21:31N 31°60' E 120°49'0 0.0
2015-Jan-16 20:31N 31°60' E 120°49'0 0.0
2015-Jan-16 19:31N 31°60' E 120°49'0 0.0
2015-Jan-16 18:31N 31°60' E 120°49'0 0.0
2015-Jan-16 17:31N 31°60' E 120°49'0 0.0
2015-Jan-16 16:25N 31°60' E 120°49'0 0.0
2015-Jan-16 15:25N 31°60' E 120°49'0 0.0
2015-Jan-16 14:31N 31°60' E 120°49'0 0.0
2015-Jan-16 13:31N 31°60' E 120°49'0 0.0
2015-Jan-16 12:31N 31°60' E 120°49'0 0.0
2015-Jan-16 11:22N 31°60' E 120°49'0 0.0
2015-Jan-16 10:31N 31°60' E 120°49'0 0.0
2015-Jan-16 09:25N 31°60' E 120°49'0 0.0
2015-Jan-16 08:32N 31°60' E 120°49'0 0.0
2015-Jan-16 07:28N 31°60' E 120°49'0 0.0
2015-Jan-16 06:28N 31°60' E 120°49'0 0.0
2015-Jan-16 05:31N 31°60' E 120°49'0 0.0
2015-Jan-16 04:31N 31°60' E 120°49'0 0.0
2015-Jan-16 03:31N 31°60' E 120°49'  
Track history (hours):
 
Tides and Currents Weather Stations Pressure Air Temp Water Temp Dewpoint Dewpoint Depression Visibility Wind Speed Wind Dir Waves Ship Positions

Catalonia

Last reported at 2015-Jan-26 03:13 UTC. Time now 2015-Jan-29 06:19 UTC.
Position N 31°05' E 122°47'.

Length 189 m; draft 7.1 m.

Type: Cargo ship. MMSI: 215929000.

Date/timePositionNaut miles runAvg speedWind from/ knotsBaromVisibWave heightAir tempDewpointWater temp
2015-Jan-26 03:13N 31°05' E 122°47'0 0.0
2015-Jan-25 11:13N 31°05' E 122°48'0 0.1
2015-Jan-25 10:31N 31°05' E 122°48'0 0.0
2015-Jan-25 08:28N 31°05' E 122°48'0 0.0
2015-Jan-23 04:31N 31°05' E 122°47'0 0.0
2015-Jan-21 12:16N 31°05' E 122°47'0 0.0
2015-Jan-21 11:25N 31°05' E 122°47'0 0.0
2015-Jan-21 03:28N 31°05' E 122°47'0 0.1
2015-Jan-21 02:31N 31°05' E 122°47'0 0.1
2015-Jan-21 01:31N 31°05' E 122°47'0 0.1
2015-Jan-20 23:25N 31°05' E 122°47'9 1.2
2015-Jan-20 15:14N 31°05' E 122°36'710.3
2015-Jan-20 14:33N 31°05' E 122°28'9 8.6
2015-Jan-20 13:33N 31°06' E 122°18'1010.5
2015-Jan-20 12:33N 31°12' E 122°08'1313.5
2015-Jan-20 11:33N 31°16' E 121°53'1313.1
2015-Jan-20 10:33N 31°21' E 121°39'1010.1
2015-Jan-20 09:34N 31°27' E 121°29'1211.8
2015-Jan-20 08:34N 31°35' E 121°18'1313.0
2015-Jan-20 07:33N 31°43' E 121°07'1110.9
2015-Jan-20 06:33N 31°48' E 120°55'1010.4
2015-Jan-20 05:33N 31°58' E 120°51'2 1.8
2015-Jan-20 04:24N 31°59' E 120°49'0 0.2
2015-Jan-20 03:27N 31°59' E 120°50'0 0.0
2015-Jan-20 02:31N 31°59' E 120°50'0 0.0
2015-Jan-20 01:18N 31°59' E 120°50'0 0.0
2015-Jan-20 00:33N 31°59' E 120°50'0 0.0
2015-Jan-19 23:33N 31°59' E 120°50'0 0.0
2015-Jan-19 22:33N 31°59' E 120°50'0 0.1
2015-Jan-19 21:33N 31°59' E 120°50'0 0.1
2015-Jan-19 20:33N 31°59' E 120°49'0 0.0
2015-Jan-19 19:27N 31°59' E 120°49'0 0.0
2015-Jan-19 18:30N 31°59' E 120°49'0 0.0
2015-Jan-19 17:18N 31°59' E 120°49'0 0.0
2015-Jan-19 16:30N 31°59' E 120°49'0 0.2
2015-Jan-19 15:33N 31°59' E 120°50'0 0.0
2015-Jan-19 14:30N 31°59' E 120°50'0 0.0
2015-Jan-19 13:33N 31°59' E 120°50'0 0.0
2015-Jan-19 12:33N 31°59' E 120°50'0 0.0
2015-Jan-19 11:33N 31°59' E 120°50'0 0.1
2015-Jan-19 10:30N 31°59' E 120°50'0 0.1
2015-Jan-19 09:30N 31°59' E 120°50'0 0.2
2015-Jan-19 08:30N 31°59' E 120°49'0 0.0
2015-Jan-19 07:30N 31°59' E 120°49'0 0.0
2015-Jan-19 06:21N 31°59' E 120°49'0 0.0
2015-Jan-19 05:33N 31°59' E 120°49'0 0.0
2015-Jan-19 04:24N 31°59' E 120°49'0 0.1
2015-Jan-19 03:30N 31°59' E 120°49'0 0.2
2015-Jan-19 02:33N 31°59' E 120°50'0 0.1
2015-Jan-19 01:33N 31°59' E 120°50'0 0.0
2015-Jan-19 00:30N 31°59' E 120°50'0 0.0
2015-Jan-18 23:33N 31°59' E 120°50'0 0.0
2015-Jan-18 22:33N 31°59' E 120°50'0 0.0
2015-Jan-18 21:33N 31°59' E 120°50'0 0.0
2015-Jan-18 20:24N 31°59' E 120°50'0 0.1
2015-Jan-18 19:27N 31°59' E 120°50'0 0.2
2015-Jan-18 18:33N 31°59' E 120°50'0 0.1
2015-Jan-18 17:33N 31°59' E 120°50'0 0.1
2015-Jan-18 16:33N 31°59' E 120°50'0 0.1
2015-Jan-18 15:27N 31°59' E 120°50'0 0.1
2015-Jan-18 14:33N 31°59' E 120°50'0 0.0
2015-Jan-18 13:15N 31°59' E 120°50'0 0.0
2015-Jan-18 12:30N 31°59' E 120°50'0 0.0
2015-Jan-18 11:33N 31°59' E 120°50'0 0.0
2015-Jan-18 10:30N 31°59' E 120°50'0 0.0
2015-Jan-18 09:33N 31°59' E 120°50'1 0.6
2015-Jan-18 08:33N 31°60' E 120°50'0 0.0
2015-Jan-18 07:28N 31°60' E 120°50'0 0.0
2015-Jan-18 06:28N 31°60' E 120°50'0 0.0
2015-Jan-18 05:28N 31°60' E 120°50'0 0.0
2015-Jan-18 04:28N 31°60' E 120°50'0 0.0
2015-Jan-18 03:28N 31°60' E 120°50'0 0.0
2015-Jan-18 02:31N 31°60' E 120°50'0 0.0
2015-Jan-18 01:31N 31°60' E 120°50'0 0.0
2015-Jan-18 00:31N 31°60' E 120°50'0 0.0
2015-Jan-17 23:31N 31°60' E 120°50'0 0.0
2015-Jan-17 22:31N 31°60' E 120°50'0 0.0
2015-Jan-17 21:31N 31°60' E 120°50'0 0.0
2015-Jan-17 20:31N 31°60' E 120°50'0 0.0
2015-Jan-17 19:28N 31°60' E 120°50'0 0.0
2015-Jan-17 18:28N 31°60' E 120°50'0 0.0
2015-Jan-17 17:31N 31°60' E 120°50'0 0.0
2015-Jan-17 16:28N 31°60' E 120°50'0 0.0
2015-Jan-17 15:28N 31°60' E 120°50'0 0.0
2015-Jan-17 14:28N 31°60' E 120°50'0 0.0
2015-Jan-17 13:31N 31°60' E 120°50'0 0.0
2015-Jan-17 12:31N 31°60' E 120°50'0 0.0
2015-Jan-17 11:25N 31°60' E 120°50'0 0.0
2015-Jan-17 10:31N 31°60' E 120°50'0 0.0
2015-Jan-17 09:31N 31°60' E 120°50'0 0.0
2015-Jan-17 08:31N 31°60' E 120°50'0 0.5
2015-Jan-17 07:31N 31°60' E 120°49'0 0.0
2015-Jan-17 06:32N 31°60' E 120°49'0 0.0
2015-Jan-17 05:31N 31°60' E 120°49'0 0.0
2015-Jan-17 04:28N 31°60' E 120°49'0 0.0
2015-Jan-17 03:31N 31°60' E 120°49'0 0.0
2015-Jan-17 02:26N 31°60' E 120°49'0 0.0
2015-Jan-17 01:31N 31°60' E 120°49'0 0.0
2015-Jan-17 00:31N 31°60' E 120°49'0 0.0
2015-Jan-16 23:32N 31°60' E 120°49'0 0.0
2015-Jan-16 22:31N 31°60' E 120°49'0 0.0
2015-Jan-16 21:31N 31°60' E 120°49'0 0.0
2015-Jan-16 20:31N 31°60' E 120°49'0 0.0
2015-Jan-16 19:31N 31°60' E 120°49'0 0.0
2015-Jan-16 18:31N 31°60' E 120°49'0 0.0
2015-Jan-16 17:31N 31°60' E 120°49'0 0.0
2015-Jan-16 16:25N 31°60' E 120°49'0 0.0
2015-Jan-16 15:25N 31°60' E 120°49'0 0.0
2015-Jan-16 14:31N 31°60' E 120°49'0 0.0
2015-Jan-16 13:31N 31°60' E 120°49'0 0.0
2015-Jan-16 12:31N 31°60' E 120°49'0 0.0
2015-Jan-16 11:22N 31°60' E 120°49'0 0.0
2015-Jan-16 10:31N 31°60' E 120°49'0 0.0
2015-Jan-16 09:25N 31°60' E 120°49'0 0.0
2015-Jan-16 08:32N 31°60' E 120°49'0 0.0
2015-Jan-16 07:28N 31°60' E 120°49'0 0.0
2015-Jan-16 06:28N 31°60' E 120°49'0 0.0
2015-Jan-16 05:31N 31°60' E 120°49'0 0.0
2015-Jan-16 04:31N 31°60' E 120°49'0 0.0
2015-Jan-16 03:31N 31°60' E 120°49'  

Dump ship's entire track history